Time;durP1;ratioP1;P1;durP2;ratioP2;P2;SDS_P1;SDS_P2;PMS_P1;PMS_P2;Temp;Humidity;BMP_temperature;BMP_pressure;BME280_temperature;BME280_humidity;BME280_pressure;Samples;Min_cycle;Max_cycle;Signal;HPM_P1;HPM_P2
2021/08/26 00:07:34;;;;;;;10.88;9.98;;;;;;;23.80;61.11;99221.22;5093208;28;20055;-74
2021/08/26 00:10:06;;;;;;;9.55;8.57;;;;;;;23.84;60.76;99208.81;5093182;28;20527;-74
2021/08/26 00:12:31;;;;;;;10.13;9.20;;;;;;;23.83;60.73;99215.28;5093195;28;20420;-74
2021/08/26 00:14:59;;;;;;;10.40;9.40;;;;;;;23.34;60.57;99153.03;5093394;28;20020;-74
2021/08/26 00:17:25;;;;;;;11.13;9.98;;;;;;;23.75;60.22;99232.78;5093128;28;20028;-74
2021/08/26 00:19:53;;;;;;;10.85;9.68;;;;;;;23.67;60.21;99227.16;5093158;28;20039;-74
2021/08/26 00:22:19;;;;;;;12.45;11.20;;;;;;;23.25;60.68;99171.63;5092891;28;20467;-74
2021/08/26 00:24:45;;;;;;;11.55;10.45;;;;;;;23.50;60.91;99211.22;5092864;28;20020;-73
2021/08/26 00:27:11;;;;;;;11.50;10.40;;;;;;;23.43;60.75;99216.09;5092724;28;20424;-75
2021/08/26 00:29:37;;;;;;;12.05;10.85;;;;;;;23.45;60.44;99212.03;5090903;28;20024;-74
2021/08/26 00:32:03;;;;;;;11.77;10.57;;;;;;;23.44;60.58;99213.13;5092339;28;20020;-74
2021/08/26 00:34:28;;;;;;;12.25;11.05;;;;;;;23.43;60.39;99208.81;5092781;28;20024;-74
2021/08/26 00:36:54;;;;;;;12.05;11.05;;;;;;;23.36;60.39;99204.78;5091274;28;20016;-74
2021/08/26 00:39:19;;;;;;;12.32;11.23;;;;;;;23.09;60.56;99148.47;5092496;28;20473;-74
2021/08/26 00:41:44;;;;;;;12.38;11.27;;;;;;;22.98;60.62;99131.47;5091280;28;20016;-75
2021/08/26 00:44:10;;;;;;;12.13;10.95;;;;;;;23.49;60.80;99198.03;5092514;28;20064;-73
2021/08/26 00:46:37;;;;;;;12.05;10.85;;;;;;;23.26;60.24;99158.97;5092606;28;20024;-73
2021/08/26 00:49:11;;;;;;;12.52;11.43;;;;;;;23.13;60.29;99142.28;5092443;28;20549;-75
2021/08/26 00:51:37;;;;;;;13.07;11.93;;;;;;;23.53;60.24;99213.38;5092322;28;20048;-74
2021/08/26 00:54:03;;;;;;;13.45;12.30;;;;;;;23.52;60.33;99192.09;5092340;28;20453;-74
2021/08/26 00:56:29;;;;;;;13.85;12.60;;;;;;;23.50;60.46;99191.56;5092144;28;20385;-74
2021/08/26 00:58:54;;;;;;;13.85;12.52;;;;;;;23.39;60.39;99177.28;5092083;28;20035;-75
2021/08/26 01:01:40;;;;;;;12.52;11.43;;;;;;;23.51;60.48;99199.38;5092074;28;20096;-74
2021/08/26 01:04:31;;;;;;;12.80;11.70;;;;;;;23.50;60.85;99194.25;5092023;28;20051;-74
2021/08/26 01:07:01;;;;;;;13.02;11.82;;;;;;;23.48;60.66;99196.41;5092160;28;20024;-74
2021/08/26 01:09:32;;;;;;;14.27;12.95;;;;;;;23.48;60.83;99182.94;5092179;28;20051;-74
2021/08/26 01:11:58;;;;;;;14.70;12.65;;;;;;;23.10;60.50;99131.25;5092391;28;20024;-74
2021/08/26 01:14:24;;;;;;;13.98;12.57;;;;;;;23.53;60.81;99194.50;5090737;28;20057;-74
2021/08/26 01:16:49;;;;;;;12.90;11.80;;;;;;;23.37;60.46;99155.19;5091778;28;20397;-74
2021/08/26 01:19:14;;;;;;;14.13;12.88;;;;;;;23.54;60.53;99173.75;5091799;28;20026;-74
2021/08/26 01:21:40;;;;;;;13.88;12.52;;;;;;;23.59;60.51;99180.00;5091757;28;20552;-75
2021/08/26 01:24:12;;;;;;;13.25;11.93;;;;;;;23.58;60.24;99175.69;5091636;28;20071;-74
2021/08/26 01:26:45;;;;;;;13.95;12.63;;;;;;;23.53;60.44;99169.47;5091533;28;20040;-74
2021/08/26 01:29:12;;;;;;;12.95;11.70;;;;;;;23.50;60.43;99170.81;5091580;28;20049;-74
2021/08/26 01:31:39;;;;;;;14.68;13.25;;;;;;;23.18;60.48;99119.94;5091626;28;20032;-73
2021/08/26 01:34:06;;;;;;;13.57;12.27;;;;;;;23.44;60.48;99161.91;5091546;28;20028;-74
2021/08/26 01:36:33;;;;;;;13.40;12.20;;;;;;;23.48;60.41;99161.38;5090136;28;20162;-74
2021/08/26 01:39:10;;;;;;;14.23;12.93;;;;;;;23.47;60.57;99149.78;5090227;28;20020;-74
2021/08/26 01:41:50;;;;;;;14.88;13.48;;;;;;;23.40;60.56;99163.53;5091210;28;20049;-74
2021/08/26 01:44:20;;;;;;;14.48;13.18;;;;;;;22.90;60.36;99093.53;5091643;28;20081;-74
2021/08/26 01:46:46;;;;;;;14.57;13.15;;;;;;;23.32;60.56;99158.69;5090307;28;20020;-74
2021/08/26 01:49:11;;;;;;;14.38;13.07;;;;;;;23.42;60.57;99163.28;5091518;28;20026;-74
2021/08/26 01:51:39;;;;;;;14.30;13.10;;;;;;;22.92;60.40;99083.28;5091589;28;20027;-74
2021/08/26 01:54:04;;;;;;;16.27;14.80;;;;;;;23.27;60.48;99136.34;5091477;28;20076;-74
2021/08/26 01:56:29;;;;;;;15.30;13.80;;;;;;;23.05;60.48;99109.69;5091399;28;20411;-75
2021/08/26 01:58:55;;;;;;;14.63;13.23;;;;;;;23.29;60.59;99158.44;5091185;28;20020;-74
2021/08/26 02:01:21;;;;;;;15.00;13.60;;;;;;;22.36;60.62;99032.91;5091102;28;20489;-74
2021/08/26 02:03:46;;;;;;;18.48;16.67;;;;;;;23.15;60.80;99168.94;5091125;28;20074;-74
2021/08/26 02:06:12;;;;;;;16.90;15.30;;;;;;;22.89;60.88;99137.66;5091376;28;20058;-74
2021/08/26 02:08:37;;;;;;;16.73;15.13;;;;;;;23.02;60.88;99164.88;5091472;28;20020;-74
2021/08/26 02:11:02;;;;;;;18.30;16.67;;;;;;;23.02;60.74;99174.84;5091221;28;20012;-74
2021/08/26 02:13:28;;;;;;;17.42;15.68;;;;;;;22.45;60.96;99092.38;5091359;28;20020;-74
2021/08/26 02:15:53;;;;;;;17.17;15.68;;;;;;;22.63;60.88;99117.97;5089968;28;20568;-75
2021/08/26 02:18:19;;;;;;;18.40;16.55;;;;;;;22.92;60.83;99164.06;5091100;28;20032;-75
2021/08/26 02:20:44;;;;;;;17.73;16.02;;;;;;;22.90;60.75;99160.81;5091149;28;20502;-74
2021/08/26 02:23:09;;;;;;;16.50;14.95;;;;;;;22.91;60.62;99165.13;5091054;28;20561;-74
2021/08/26 02:25:35;;;;;;;15.88;14.45;;;;;;;22.65;60.77;99126.56;5090872;28;20045;-74
2021/08/26 02:28:00;;;;;;;19.15;17.35;;;;;;;22.73;60.35;99124.16;5091047;28;20450;-75
2021/08/26 02:30:26;;;;;;;17.23;15.55;;;;;;;22.60;60.29;99113.94;5091448;28;20019;-74
2021/08/26 02:32:51;;;;;;;17.25;15.57;;;;;;;22.87;60.66;99164.06;5091095;28;20023;-74
2021/08/26 02:35:16;;;;;;;16.30;14.88;;;;;;;22.88;60.38;99152.22;5091458;28;20107;-74
2021/08/26 02:37:42;;;;;;;17.27;15.75;;;;;;;22.70;60.38;99127.41;5091221;28;20102;-74
2021/08/26 02:40:08;;;;;;;17.33;14.73;;;;;;;22.61;60.28;99109.34;5089815;28;20108;-74
2021/08/26 02:42:33;;;;;;;16.55;14.88;;;;;;;22.89;60.09;99157.31;5091292;28;20024;-73
2021/08/26 02:44:59;;;;;;;16.40;14.85;;;;;;;22.47;60.20;99101.00;5091167;28;20028;-74
2021/08/26 02:47:24;;;;;;;16.63;15.13;;;;;;;22.59;60.09;99124.97;5091004;28;20027;-74
2021/08/26 02:49:50;;;;;;;15.68;14.25;;;;;;;22.81;60.06;99166.72;5089669;28;20016;-73
2021/08/26 02:52:15;;;;;;;15.88;14.48;;;;;;;22.41;60.04;99102.88;5090985;28;20031;-74
2021/08/26 02:54:41;;;;;;;16.15;14.77;;;;;;;22.43;60.17;99108.78;5093726;28;20024;-74
2021/08/26 02:57:06;;;;;;;17.05;15.55;;;;;;;22.74;60.12;99157.28;5094676;28;20059;-74
2021/08/26 02:59:32;;;;;;;16.70;15.00;;;;;;;22.75;60.16;99159.69;5094606;28;20050;-74
2021/08/26 03:01:58;;;;;;;16.77;15.15;;;;;;;22.79;60.22;99165.34;5094567;28;20386;-74
2021/08/26 03:04:23;;;;;;;16.67;15.15;;;;;;;22.78;60.21;99163.75;5094589;28;20024;-75
2021/08/26 03:06:49;;;;;;;17.05;15.63;;;;;;;22.78;60.25;99164.53;5093129;28;20062;-73
2021/08/26 03:09:14;;;;;;;16.70;15.27;;;;;;;22.77;60.28;99160.25;5093011;28;20043;-74
2021/08/26 03:11:39;;;;;;;17.55;15.88;;;;;;;22.78;60.33;99164.53;5094172;28;20055;-74
2021/08/26 03:14:06;;;;;;;16.60;15.00;;;;;;;22.80;60.47;99158.94;5094363;28;20024;-74
2021/08/26 03:16:31;;;;;;;16.42;14.82;;;;;;;22.34;60.58;99083.47;5094346;28;20028;-74
2021/08/26 03:18:56;;;;;;;16.35;14.90;;;;;;;22.76;60.37;99157.81;5094326;28;20023;-75
2021/08/26 03:21:22;;;;;;;17.02;15.32;;;;;;;22.75;60.47;99151.63;5093969;28;20024;-74
2021/08/26 03:23:47;;;;;;;16.40;14.85;;;;;;;22.69;60.55;99149.19;5092512;28;20035;-74
2021/08/26 03:26:13;;;;;;;17.35;15.65;;;;;;;22.78;60.51;99167.25;5093698;28;20084;-74
2021/08/26 03:28:38;;;;;;;18.35;16.48;;;;;;;22.35;60.57;99103.91;5093946;28;20024;-74
2021/08/26 03:31:04;;;;;;;17.40;15.70;;;;;;;22.76;60.59;99165.88;5093998;28;20499;-74
2021/08/26 03:33:29;;;;;;;17.35;15.65;;;;;;;22.80;60.52;99158.94;5093896;28;20434;-74
2021/08/26 03:35:54;;;;;;;17.73;16.13;;;;;;;22.80;60.37;99165.13;5093676;28;20020;-74
2021/08/26 03:38:20;;;;;;;17.75;16.15;;;;;;;22.61;60.46;99134.38;5093660;28;20020;-74
2021/08/26 03:40:45;;;;;;;19.30;17.55;;;;;;;22.81;60.76;99172.13;5093713;28;20031;-74
2021/08/26 03:43:11;;;;;;;18.10;16.40;;;;;;;22.55;60.62;99126.56;5093683;28;20016;-75
2021/08/26 03:45:37;;;;;;;16.58;15.13;;;;;;;22.87;60.73;99167.56;5092434;28;20053;-75
2021/08/26 03:48:02;;;;;;;17.27;15.60;;;;;;;22.90;60.49;99171.59;5092567;28;20015;-74
2021/08/26 03:50:28;;;;;;;18.33;16.67;;;;;;;22.82;60.56;99189.88;5093703;28;20028;-74
2021/08/26 03:52:53;;;;;;;17.63;15.93;;;;;;;22.81;60.53;99177.50;5093635;28;20024;-74
2021/08/26 03:55:19;;;;;;;17.15;15.57;;;;;;;22.82;60.28;99173.72;5092363;28;20162;-74
2021/08/26 03:57:44;;;;;;;17.15;15.40;;;;;;;22.82;60.21;99178.31;5093655;28;20083;-74
2021/08/26 04:00:10;;;;;;;17.52;15.75;;;;;;;22.56;60.35;99128.19;5092034;28;20027;-75
2021/08/26 04:02:36;;;;;;;18.73;15.88;;;;;;;22.82;60.20;99165.66;5093265;28;20161;-74
2021/08/26 04:05:01;;;;;;;18.55;16.85;;;;;;;22.82;60.25;99170.22;5092913;28;20107;-74
2021/08/26 04:07:30;;;;;;;17.88;16.30;;;;;;;22.77;60.18;99162.13;5093110;28;20020;-74
2021/08/26 04:09:56;;;;;;;20.00;17.38;;;;;;;22.79;60.32;99178.81;5093187;28;20032;-74
2021/08/26 04:12:21;;;;;;;17.55;15.85;;;;;;;22.63;60.28;99161.81;5093248;28;20089;-75
2021/08/26 04:14:47;;;;;;;19.35;17.55;;;;;;;22.82;60.24;99176.44;5093189;28;20504;-75
2021/08/26 04:17:12;;;;;;;19.55;17.55;;;;;;;22.81;60.30;99182.06;5093127;28;20023;-74
2021/08/26 04:19:37;;;;;;;20.85;18.77;;;;;;;22.71;60.30;99168.56;5093143;28;20119;-75
2021/08/26 04:22:03;;;;;;;19.77;17.83;;;;;;;22.84;60.20;99184.22;5092974;28;20016;-75
2021/08/26 04:24:28;;;;;;;17.77;16.17;;;;;;;22.43;59.97;99116.84;5093004;28;20455;-74
2021/08/26 04:26:53;;;;;;;17.85;16.15;;;;;;;22.81;60.22;99187.47;5091577;28;20493;-74
2021/08/26 04:29:19;;;;;;;18.05;16.38;;;;;;;22.85;60.08;99195.81;5092946;28;20054;-74
2021/08/26 04:31:44;;;;;;;18.63;16.90;;;;;;;22.70;60.07;99178.53;5092740;28;20026;-75
2021/08/26 04:34:10;;;;;;;19.50;17.60;;;;;;;22.89;60.07;99204.97;5091420;28;20046;-74
2021/08/26 04:36:35;;;;;;;17.83;16.15;;;;;;;22.62;60.00;99162.91;5092579;28;20458;-74
2021/08/26 04:39:00;;;;;;;21.63;19.48;;;;;;;22.87;59.98;99207.94;5092590;28;20479;-74
2021/08/26 04:41:26;;;;;;;19.95;18.13;;;;;;;22.54;60.20;99173.38;5092560;28;20024;-75
2021/08/26 04:43:52;;;;;;;18.98;17.17;;;;;;;22.77;60.04;99206.00;5092629;28;20028;-74
2021/08/26 04:46:18;;;;;;;18.42;16.75;;;;;;;22.76;60.02;99199.00;5092551;28;20077;-75
2021/08/26 04:48:43;;;;;;;17.25;15.65;;;;;;;22.76;60.05;99200.88;5092455;28;20031;-72
2021/08/26 04:51:08;;;;;;;18.75;17.02;;;;;;;22.22;60.07;99111.66;5092510;28;20032;-74
2021/08/26 04:53:34;;;;;;;18.60;16.85;;;;;;;22.35;60.10;99124.63;5091102;28;20028;-74
2021/08/26 04:55:59;;;;;;;17.98;16.08;;;;;;;22.76;60.07;99192.81;5090773;28;20136;-74
2021/08/26 04:58:25;;;;;;;19.45;17.20;;;;;;;22.48;59.96;99141.06;5092338;28;20016;-75
2021/08/26 05:00:50;;;;;;;18.17;16.52;;;;;;;22.88;60.09;99196.09;5091149;28;20031;-75
2021/08/26 05:03:16;;;;;;;17.80;16.10;;;;;;;22.76;59.98;99171.28;5092100;28;20032;-76
2021/08/26 05:05:41;;;;;;;18.50;16.80;;;;;;;22.94;59.99;99196.91;5090758;28;20118;-72
2021/08/26 05:08:06;;;;;;;20.08;17.92;;;;;;;22.99;59.87;99197.72;5089908;28;20039;-74
2021/08/26 05:10:32;;;;;;;19.13;17.27;;;;;;;23.02;59.98;99193.69;5087897;28;20493;-73
2021/08/26 05:12:58;;;;;;;18.67;17.08;;;;;;;23.06;59.82;99194.78;5089153;28;20492;-73
2021/08/26 05:15:23;;;;;;;18.30;16.38;;;;;;;23.06;59.82;99202.88;5081830;28;20501;-74
2021/08/26 05:17:49;;;;;;;18.05;16.23;;;;;;;22.64;59.66;99128.47;5087594;28;20037;-75
2021/08/26 05:20:14;;;;;;;18.95;17.08;;;;;;;22.82;59.77;99152.19;5078521;28;20028;-75
2021/08/26 05:22:39;;;;;;;17.70;15.95;;;;;;;23.03;59.85;99187.22;5071246;28;20555;-75
2021/08/26 05:25:05;;;;;;;18.88;17.00;;;;;;;22.85;59.84;99158.13;5069658;28;20017;-75
2021/08/26 05:27:31;;;;;;;17.85;16.02;;;;;;;22.70;60.02;99140.84;5070062;28;20056;-75
2021/08/26 05:29:56;;;;;;;19.33;17.45;;;;;;;22.89;60.06;99160.00;5071242;28;20082;-75
2021/08/26 05:32:21;;;;;;;18.42;16.63;;;;;;;23.09;59.98;99165.44;5070001;28;20050;-75
2021/08/26 05:34:47;;;;;;;16.70;15.20;;;;;;;23.18;59.77;99176.50;5071315;28;20021;-74
2021/08/26 05:37:12;;;;;;;18.08;16.25;;;;;;;22.77;59.78;99116.38;5071336;28;20050;-74
2021/08/26 05:39:38;;;;;;;16.60;14.90;;;;;;;23.31;59.66;99184.03;5071400;28;20111;-74
2021/08/26 05:42:03;;;;;;;18.38;15.82;;;;;;;22.81;59.42;99095.94;5071124;28;20020;-75
2021/08/26 05:44:29;;;;;;;17.70;15.90;;;;;;;22.92;59.42;99108.31;5071072;28;20383;-75
2021/08/26 05:46:54;;;;;;;22.40;20.17;;;;;;;23.06;59.70;99149.00;5068611;28;20031;-74
2021/08/26 05:49:20;;;;;;;18.25;16.50;;;;;;;23.30;59.34;99176.22;5070776;28;20021;-74
2021/08/26 05:51:45;;;;;;;19.00;17.20;;;;;;;23.42;59.31;99185.63;5071253;28;20043;-73
2021/08/26 05:54:10;;;;;;;18.40;16.63;;;;;;;23.14;59.27;99140.41;5071117;28;20100;-73
2021/08/26 05:56:36;;;;;;;16.90;15.10;;;;;;;23.60;59.28;99189.69;5071313;28;20031;-73
2021/08/26 05:59:02;;;;;;;16.42;14.88;;;;;;;23.65;58.98;99186.19;5071204;28;20062;-74
2021/08/26 06:01:29;;;;;;;16.70;15.10;;;;;;;23.63;58.78;99180.25;5071061;28;20033;-74
2021/08/26 06:03:55;;;;;;;16.92;13.48;;;;;;;23.62;58.98;99175.94;5070927;28;20028;-74
2021/08/26 06:06:21;;;;;;;15.38;13.93;;;;;;;23.58;58.79;99177.56;5070740;28;20029;-74
2021/08/26 06:08:47;;;;;;;20.67;18.50;;;;;;;23.48;58.94;99166.78;5070763;28;20025;-74
2021/08/26 06:11:12;;;;;;;19.95;17.92;;;;;;;23.63;58.81;99181.06;5070917;28;20413;-72
2021/08/26 06:13:38;;;;;;;19.23;17.23;;;;;;;23.61;58.94;99171.63;5069397;28;20456;-74
2021/08/26 06:16:04;;;;;;;28.85;26.05;;;;;;;23.65;58.70;99172.69;5070683;28;20032;-75
2021/08/26 06:18:30;;;;;;;18.08;16.48;;;;;;;23.63;58.59;99169.47;5070634;28;20043;-74
2021/08/26 06:20:55;;;;;;;17.08;15.40;;;;;;;23.66;58.79;99187.78;5070844;28;20063;-75
2021/08/26 06:23:21;;;;;;;17.50;14.13;;;;;;;23.24;58.67;99105.38;5070885;28;20028;-74
2021/08/26 06:25:46;;;;;;;16.80;15.05;;;;;;;23.72;58.52;99168.63;5070596;28;20497;-73
2021/08/26 06:28:12;;;;;;;15.27;13.73;;;;;;;23.50;58.53;99138.47;5071398;28;20456;-74
2021/08/26 06:30:37;;;;;;;15.70;14.18;;;;;;;23.73;58.37;99148.69;5074875;28;20028;-73
2021/08/26 06:33:03;;;;;;;14.32;12.93;;;;;;;23.56;58.10;99117.75;5073358;28;20028;-74
2021/08/26 06:35:29;;;;;;;14.60;13.18;;;;;;;23.98;57.77;99174.00;5074595;28;20037;-74
2021/08/26 06:37:54;;;;;;;21.13;18.85;;;;;;;24.02;57.74;99175.88;5074480;28;20024;-74
2021/08/26 06:40:20;;;;;;;15.40;13.85;;;;;;;24.12;57.83;99171.50;5073346;28;20012;-74
2021/08/26 06:42:45;;;;;;;16.83;15.23;;;;;;;23.79;57.23;99109.06;5074482;28;20461;-75
2021/08/26 06:45:11;;;;;;;16.92;15.38;;;;;;;24.18;57.40;99168.53;5074083;28;20039;-74
2021/08/26 06:47:36;;;;;;;19.23;17.48;;;;;;;24.33;57.47;99164.97;5072698;28;20036;-74
2021/08/26 06:50:02;;;;;;;15.60;14.10;;;;;;;24.18;57.37;99149.63;5072887;28;20567;-74
2021/08/26 06:52:28;;;;;;;14.73;13.38;;;;;;;24.29;57.13;99169.31;5074319;28;20025;-74
2021/08/26 06:54:53;;;;;;;20.00;18.00;;;;;;;24.43;57.04;99180.31;5072968;28;20028;-74
2021/08/26 06:57:19;;;;;;;19.23;16.00;;;;;;;24.57;56.73;99174.06;5074130;28;20432;-74
2021/08/26 06:59:44;;;;;;;18.67;16.75;;;;;;;24.62;55.86;99165.94;5074336;28;20031;-74
2021/08/26 07:02:09;;;;;;;16.00;14.45;;;;;;;24.19;55.94;99096.50;5074216;28;20416;-74
2021/08/26 07:04:35;;;;;;;15.05;13.55;;;;;;;24.62;55.25;99148.94;5074161;28;20520;-74
2021/08/26 07:07:00;;;;;;;14.07;12.68;;;;;;;24.80;55.06;99160.97;5074086;28;20489;-74
2021/08/26 07:09:26;;;;;;;17.70;14.68;;;;;;;24.84;54.94;99162.00;5073898;28;20485;-74
2021/08/26 07:11:52;;;;;;;16.35;14.70;;;;;;;24.90;54.95;99177.91;5073940;28;20032;-74
2021/08/26 07:14:18;;;;;;;16.30;11.85;;;;;;;24.95;55.18;99177.06;5073891;28;20021;-74
2021/08/26 07:16:44;;;;;;;17.80;15.60;;;;;;;24.96;55.11;99165.16;5090918;28;20043;-74
2021/08/26 07:19:09;;;;;;;14.38;12.85;;;;;;;24.89;54.93;99154.69;5092793;28;20076;-75
2021/08/26 07:21:35;;;;;;;13.48;12.13;;;;;;;25.05;54.65;99163.50;5093312;28;20020;-73
2021/08/26 07:24:00;;;;;;;14.38;12.98;;;;;;;25.21;54.23;99177.69;5093416;28;20036;-80
2021/08/26 07:26:26;;;;;;;13.18;11.80;;;;;;;24.89;54.12;99113.38;5093709;28;20052;-81
2021/08/26 07:28:52;;;;;;;13.98;12.40;;;;;;;25.26;53.96;99169.56;5094130;28;20408;-80
2021/08/26 07:31:18;;;;;;;13.10;11.80;;;;;;;25.31;53.83;99169.53;5093907;28;20031;-79
2021/08/26 07:33:44;;;;;;;13.77;12.38;;;;;;;25.34;53.43;99158.97;5093752;28;20020;-80
2021/08/26 07:36:09;;;;;;;13.05;11.85;;;;;;;25.07;53.58;99096.50;5093833;28;20032;-80
2021/08/26 07:38:35;;;;;;;13.75;12.38;;;;;;;25.19;53.38;99110.44;5093456;28;20080;-80
2021/08/26 07:41:00;;;;;;;13.57;11.98;;;;;;;25.40;53.12;99134.59;5091975;28;20047;-81
2021/08/26 07:43:30;;;;;;;13.45;12.05;;;;;;;25.64;52.87;99160.56;5092163;28;20420;-80
2021/08/26 07:45:56;;;;;;;14.10;12.82;;;;;;;25.28;52.71;99116.88;5092017;28;20027;-80
2021/08/26 07:48:21;;;;;;;17.10;14.82;;;;;;;25.55;52.70;99156.06;5093405;28;20028;-79
2021/08/26 07:50:48;;;;;;;13.02;11.80;;;;;;;25.17;51.58;99092.91;5091086;28;20031;-81
2021/08/26 07:53:13;;;;;;;14.77;13.27;;;;;;;25.75;51.47;99174.81;5090526;28;20413;-80
2021/08/26 07:55:39;;;;;;;15.10;11.90;;;;;;;25.85;51.52;99163.88;5090112;28;20036;-78
2021/08/26 07:58:04;;;;;;;14.18;12.68;;;;;;;25.77;51.33;99140.19;5090749;28;20038;-79
2021/08/26 08:00:30;;;;;;;13.02;11.88;;;;;;;25.94;50.79;99132.41;5092910;28;20038;-81
2021/08/26 08:02:55;;;;;;;12.13;11.13;;;;;;;25.91;50.83;99127.56;5091315;28;20032;-80
2021/08/26 08:05:20;;;;;;;14.15;12.70;;;;;;;26.17;50.40;99151.63;5091237;28;20032;-78
2021/08/26 08:07:46;;;;;;;15.25;13.75;;;;;;;26.35;50.19;99180.66;5091960;28;20032;-81
2021/08/26 08:10:13;;;;;;;12.95;11.60;;;;;;;26.45;49.85;99171.59;5091820;28;20489;-81
2021/08/26 08:12:39;;;;;;;16.17;14.68;;;;;;;26.38;49.29;99154.91;5092878;28;20101;-80
2021/08/26 08:15:05;;;;;;;16.25;14.85;;;;;;;26.02;49.30;99082.28;5092266;28;20055;-80
2021/08/26 08:17:31;;;;;;;13.30;12.10;;;;;;;26.48;49.64;99122.28;5091934;28;20034;-78
2021/08/26 08:19:57;;;;;;;17.17;15.60;;;;;;;26.77;49.44;99155.47;5091535;28;20055;-78
2021/08/26 08:22:22;;;;;;;15.90;13.73;;;;;;;26.58;49.16;99098.59;5092130;28;20469;-78
2021/08/26 08:24:47;;;;;;;18.15;16.27;;;;;;;26.94;49.07;99117.00;5090477;28;20032;-73
2021/08/26 08:27:13;;;;;;;13.13;12.02;;;;;;;27.30;48.71;99147.06;5090715;28;20044;-74
2021/08/26 08:29:38;;;;;;;14.40;12.75;;;;;;;27.29;48.23;99137.31;5092606;28;20063;-73
2021/08/26 08:32:04;;;;;;;15.07;13.55;;;;;;;27.43;48.49;99159.84;5092670;28;20020;-73
2021/08/26 08:34:29;;;;;;;13.60;12.20;;;;;;;27.47;48.06;99147.28;5090840;28;20028;-74
2021/08/26 08:36:55;;;;;;;13.70;12.40;;;;;;;27.37;47.87;99109.53;5091569;28;20047;-73
2021/08/26 08:39:21;;;;;;;14.88;13.48;;;;;;;27.65;47.93;99126.69;5090146;28;20028;-73
2021/08/26 08:41:47;;;;;;;13.65;12.27;;;;;;;27.76;47.72;99121.88;5090275;28;20076;-73
2021/08/26 08:44:13;;;;;;;14.90;13.45;;;;;;;27.78;47.48;99108.81;5079296;28;20162;-72
2021/08/26 08:46:39;;;;;;;13.73;12.43;;;;;;;27.70;46.68;99085.91;5071960;28;20115;-73
2021/08/26 08:49:06;;;;;;;15.77;14.38;;;;;;;28.03;46.88;99105.56;5091518;28;20066;-75
2021/08/26 08:51:32;;;;;;;14.02;12.75;;;;;;;28.03;46.20;99083.06;5089653;28;20027;-74
2021/08/26 08:53:58;;;;;;;15.20;13.57;;;;;;;28.24;46.17;99111.44;5091731;28;20413;-74
2021/08/26 08:56:26;;;;;;;14.48;13.07;;;;;;;28.10;46.10;99099.72;5090061;28;20038;-75
2021/08/26 08:58:56;;;;;;;14.85;13.55;;;;;;;28.19;46.22;99119.63;5092031;28;20031;-74
2021/08/26 09:01:21;;;;;;;13.98;12.57;;;;;;;28.12;45.72;99106.47;5091252;28;20412;-74
2021/08/26 09:03:46;;;;;;;17.60;13.98;;;;;;;28.27;45.87;99110.00;5091224;28;20028;-74
2021/08/26 09:06:12;;;;;;;14.63;12.27;;;;;;;28.46;45.36;99113.38;5092035;28;20027;-74
2021/08/26 09:08:38;;;;;;;15.57;14.10;;;;;;;28.36;44.80;99065.53;5091924;28;20097;-74
2021/08/26 09:11:12;;;;;;;15.00;13.55;;;;;;;28.77;44.47;99110.75;5090672;28;20491;-75
2021/08/26 09:13:38;;;;;;;14.10;12.70;;;;;;;28.89;44.52;99104.78;5090469;28;20038;-73
2021/08/26 09:16:05;;;;;;;14.00;12.60;;;;;;;29.12;44.28;99092.03;5090279;28;20028;-75
2021/08/26 09:18:30;;;;;;;13.90;12.45;;;;;;;29.32;43.39;99086.06;5091214;28;20035;-76
2021/08/26 09:21:04;;;;;;;13.80;12.65;;;;;;;29.26;43.33;99041.88;5091582;28;20024;-74
2021/08/26 09:23:32;;;;;;;14.38;11.95;;;;;;;29.51;42.84;99042.31;5089675;28;20038;-80
2021/08/26 09:26:24;;;;;;;16.42;14.88;;;;;;;29.79;42.00;99061.97;5088014;28;20513;-79
2021/08/26 09:28:51;;;;;;;15.75;14.15;;;;;;;29.67;41.96;99011.63;5082560;28;20415;-80
2021/08/26 09:31:16;;;;;;;18.00;16.20;;;;;;;30.32;41.70;99080.81;5091603;28;20028;-80
2021/08/26 09:34:07;;;;;;;18.83;17.02;;;;;;;30.58;41.48;99072.66;5089996;28;20028;-80
2021/08/26 09:36:33;;;;;;;;;;;;;;;30.68;41.21;99066.91;5092122;28;20024;-80
2021/08/26 09:39:05;;;;;;;14.13;12.60;;;;;;;30.57;40.84;99027.47;5091180;28;20435;-79
2021/08/26 09:41:40;;;;;;;14.00;12.70;;;;;;;30.43;40.31;99027.59;5090113;28;20024;-79
2021/08/26 09:44:12;;;;;;;12.88;11.52;;;;;;;30.93;40.43;99070.72;5078477;28;20024;-80
2021/08/26 09:46:37;;;;;;;13.15;11.95;;;;;;;30.87;40.18;99036.56;5089495;28;20594;-80
2021/08/26 09:49:05;;;;;;;21.60;19.50;;;;;;;31.25;40.05;99055.78;5086933;28;20062;-80
2021/08/26 09:51:31;;;;;;;13.38;12.07;;;;;;;31.69;38.85;99083.66;5091048;28;20050;-79
2021/08/26 09:53:56;;;;;;;13.73;12.40;;;;;;;31.49;38.60;99015.06;5089505;28;20036;-81
2021/08/26 09:56:23;;;;;;;13.20;12.05;;;;;;;31.32;38.60;98993.31;5090967;28;20032;-78
2021/08/26 09:58:53;;;;;;;14.82;13.43;;;;;;;31.29;38.84;98991.25;5089547;28;20028;-80
2021/08/26 10:01:20;;;;;;;13.35;12.13;;;;;;;30.96;39.07;98964.53;5090866;28;20035;-80
2021/08/26 10:03:47;;;;;;;14.88;13.35;;;;;;;31.11;39.15;99015.00;5090382;28;20111;-79
2021/08/26 10:06:14;;;;;;;13.75;12.50;;;;;;;30.65;39.73;98972.19;5090690;28;20085;-78
2021/08/26 10:08:41;;;;;;;15.48;13.90;;;;;;;30.63;39.85;99009.84;5081196;28;20040;-80
2021/08/26 10:11:09;;;;;;;19.05;17.08;;;;;;;30.41;40.35;99007.25;5083883;28;20065;-80
2021/08/26 10:13:35;;;;;;;17.88;16.17;;;;;;;30.02;40.90;98990.78;5086105;28;20024;-80
2021/08/26 10:16:01;;;;;;;24.45;18.38;;;;;;;29.87;41.12;99012.97;5078041;28;20032;-78
2021/08/26 10:18:30;;;;;;;19.05;16.75;;;;;;;29.87;42.20;99012.97;5071368;28;20085;-79
2021/08/26 10:20:56;;;;;;;16.10;14.40;;;;;;;29.76;42.27;99019.06;5071018;28;20037;-79
2021/08/26 10:23:23;;;;;;;13.00;11.68;;;;;;;29.59;42.26;99017.84;5069721;28;20032;-74
2021/08/26 10:25:50;;;;;;;13.73;12.40;;;;;;;29.09;42.42;98950.16;5076797;28;20059;-72
2021/08/26 10:28:16;;;;;;;14.48;13.07;;;;;;;29.21;43.05;98986.84;5090674;28;20089;-73
2021/08/26 10:30:43;;;;;;;15.80;14.20;;;;;;;29.17;43.10;98991.28;5090824;28;20032;-73
2021/08/26 10:33:14;;;;;;;18.10;16.50;;;;;;;28.77;43.54;98947.72;5090769;28;20028;-74
2021/08/26 10:35:59;;;;;;;18.85;16.70;;;;;;;29.08;43.82;98999.41;5090778;28;20035;-74
2021/08/26 10:38:36;;;;;;;17.40;15.65;;;;;;;29.07;43.69;98997.81;5089185;28;20070;-73
2021/08/26 10:41:19;;;;;;;19.98;18.08;;;;;;;29.04;43.96;99006.59;5075374;28;20052;-73
2021/08/26 10:43:54;;;;;;;15.55;14.05;;;;;;;29.00;43.94;98995.53;5069945;28;20036;-72
2021/08/26 10:46:47;;;;;;;16.25;14.55;;;;;;;28.93;44.29;98995.16;5080258;28;20024;-74
2021/08/26 10:49:12;;;;;;;14.55;13.18;;;;;;;28.96;44.46;98988.28;5084294;28;20031;-75
2021/08/26 10:51:46;;;;;;;13.82;12.48;;;;;;;28.71;44.17;98952.50;5080885;28;20412;-74
2021/08/26 10:54:32;;;;;;;14.05;12.75;;;;;;;28.71;43.97;98927.25;5084744;28;20032;-74
2021/08/26 10:57:26;;;;;;;13.73;12.30;;;;;;;29.01;44.03;98978.13;5086196;28;20028;-74
2021/08/26 10:59:51;;;;;;;16.48;12.77;;;;;;;28.62;44.10;98921.78;5088066;28;20461;-73
2021/08/26 11:02:42;;;;;;;17.50;13.10;;;;;;;28.94;44.12;98963.34;5086944;28;20036;-74
2021/08/26 11:05:36;;;;;;;15.55;13.02;;;;;;;29.00;44.13;98960.22;5089074;28;20035;-75
2021/08/26 11:08:31;;;;;;;14.25;12.73;;;;;;;29.05;44.25;98959.25;5088626;28;20092;-74
2021/08/26 11:11:17;;;;;;;17.13;12.98;;;;;;;28.98;44.54;98951.53;5083527;28;20420;-75
2021/08/26 11:13:42;;;;;;;15.13;13.05;;;;;;;28.69;44.66;98915.88;5083793;28;20020;-74
2021/08/26 11:16:23;;;;;;;14.65;13.43;;;;;;;29.15;44.79;98955.47;5083197;28;20091;-72
2021/08/26 11:18:55;;;;;;;14.60;13.23;;;;;;;29.27;44.88;98966.53;5073522;28;20020;-73
2021/08/26 11:21:43;;;;;;;14.70;13.07;;;;;;;29.44;44.34;98974.78;5088225;28;20118;-74
2021/08/26 11:24:12;;;;;;;16.42;12.90;;;;;;;29.42;44.20;98987.88;5088002;28;20024;-79